Mora RC Data

Date Time Air Temperature Relative Humidity Dewpoint Windchill Heat Index Wind Speed Wind Dir. Rain Solar Radiation Soil Temperature
2m 2m 3m 3m 10cm
US/Mountain F % F F F MPH deg in MJ/m^2 F
max avg avg
2020-08-01 00:05:00 53.6 78.2 47.0 53.6 53.6 5.3 9.4 6.1 292.7 271.6 0.00 0.0000000 69.3
2020-08-01 00:10:00 53.6 77.4 46.7 53.6 53.6 7.4 7.8 5.8 288.2 272.1 0.00 0.0000000 69.2
2020-08-01 00:15:00 53.5 77.3 46.6 53.5 53.5 5.5 8.8 6.5 303.0 279.0 0.00 0.0000000 69.0
2020-08-01 00:20:00 54.1 73.8 45.9 54.1 54.1 10.3 11.0 7.7 303.8 288.3 0.00 0.0000000 68.9
2020-08-01 00:25:00 54.9 72.6 46.2 54.9 54.9 6.9 10.8 7.7 244.0 282.3 0.00 0.0000000 68.8
2020-08-01 00:30:00 53.7 77.0 46.7 53.7 53.7 5.1 10.8 7.0 274.9 265.0 0.00 0.0000000 68.7
2020-08-01 00:35:00 53.1 78.4 46.6 53.1 53.1 7.2 8.8 6.0 248.5 271.1 0.00 0.0000000 68.6
2020-08-01 00:40:00 52.9 77.5 46.0 52.9 52.9 5.3 7.2 5.5 254.9 280.2 0.00 0.0000000 68.5
2020-08-01 00:45:00 53.0 77.8 46.2 53.0 53.0 3.7 8.0 5.5 258.0 270.3 0.00 0.0000000 68.3
2020-08-01 00:50:00 52.9 77.4 46.0 52.9 52.9 7.6 9.0 6.0 277.7 279.1 0.00 0.0000000 68.2
2020-08-01 00:55:00 52.8 78.5 46.3 52.8 52.8 6.0 8.0 5.6 287.8 279.7 0.00 0.0000000 68.1
2020-08-01 01:00:00 52.4 79.3 46.2 52.4 52.4 4.9 6.9 5.3 254.7 268.1 0.00 0.0000000 68.0
2020-08-01 01:05:00 52.3 78.9 45.9 52.3 52.3 6.9 8.3 5.3 286.2 267.0 0.00 0.0000000 67.9
2020-08-01 01:10:00 52.1 78.6 45.7 52.1 52.1 5.6 10.6 6.8 264.5 262.4 0.00 0.0000000 67.7
2020-08-01 01:15:00 52.1 78.7 45.7 52.1 52.1 5.1 7.4 5.1 287.8 257.7 0.00 0.0000000 67.7
2020-08-01 01:20:00 52.2 78.4 45.6 52.2 52.2 3.5 6.3 4.7 294.3 261.4 0.00 0.0000000 67.5
2020-08-01 01:25:00 51.9 77.5 45.1 51.9 51.9 4.9 6.7 5.0 271.7 254.6 0.00 0.0000000 67.4
2020-08-01 01:30:00 51.8 78.0 45.1 51.8 51.8 3.8 7.1 4.1 246.4 273.5 0.00 0.0000000 67.3
2020-08-01 01:35:00 51.7 78.0 45.0 51.7 51.7 3.0 5.3 3.6 277.2 264.5 0.00 0.0000000 67.2
2020-08-01 01:40:00 51.6 78.0 45.0 51.6 51.6 2.1 4.6 3.0 205.0 252.1 0.00 0.0000000 67.1
2020-08-01 01:45:00 51.5 77.6 44.8 51.5 51.5 5.5 6.2 4.4 285.4 261.5 0.00 0.0000000 67.0
2020-08-01 01:50:00 51.5 77.9 44.9 51.5 51.5 2.8 8.3 5.2 285.6 263.5 0.00 0.0000000 66.9
2020-08-01 01:55:00 51.4 77.8 44.7 51.4 51.4 6.3 6.9 4.7 241.3 246.7 0.00 0.0000000 66.8
2020-08-01 02:00:00 51.3 76.6 44.2 51.3 51.3 8.5 8.5 6.0 248.5 261.6 0.00 0.0000000 66.7
2020-08-01 02:05:00 51.7 76.9 44.7 51.7 51.7 3.8 9.9 5.6 282.0 266.4 0.00 0.0000000 66.6
2020-08-01 02:10:00 51.2 77.6 44.5 51.2 51.2 3.1 5.1 3.9 192.8 277.0 0.00 0.0000000 66.5
2020-08-01 02:15:00 51.1 77.7 44.4 51.1 51.1 4.6 5.3 3.3 328.7 309.1 0.00 0.0000000 66.4
2020-08-01 02:20:00 51.1 77.9 44.4 51.1 51.1 2.6 4.0 2.7 274.5 260.4 0.00 0.0000000 66.3
2020-08-01 02:25:00 50.9 78.1 44.3 50.9 50.9 3.1 3.7 2.4 206.5 244.6 0.00 0.0000000 66.3
2020-08-01 02:30:00 50.8 77.9 44.1 50.8 50.8 4.9 7.6 4.8 289.0 270.1 0.00 0.0000000 66.2
2020-08-01 02:35:00 51.1 75.9 43.7 51.1 51.1 5.3 7.6 4.8 289.6 289.8 0.00 0.0000000 66.1
2020-08-01 02:40:00 51.1 76.3 43.9 51.1 51.1 3.8 6.5 3.9 259.3 268.9 0.00 0.0000000 66.0
2020-08-01 02:45:00 50.7 77.8 44.0 50.7 50.7 5.1 6.9 4.6 277.1 285.4 0.00 0.0000000 65.9
2020-08-01 02:50:00 50.4 78.0 43.8 50.4 50.4 3.7 7.8 5.7 277.7 270.9 0.00 0.0000000 65.8
2020-08-01 02:55:00 50.3 78.4 43.9 50.3 50.3 4.2 6.3 4.7 218.0 263.2 0.00 0.0000000 65.7
2020-08-01 03:00:00 50.2 78.2 43.7 50.2 50.2 2.4 6.5 4.3 251.4 250.6 0.00 0.0000000 65.6
2020-08-01 03:05:00 50.3 78.2 43.7 50.3 50.3 6.0 7.1 5.1 253.7 284.7 0.00 0.0000000 65.6
2020-08-01 03:10:00 49.9 78.9 43.6 47.8 49.9 5.5 7.4 4.8 279.6 269.7 0.00 0.0000000 65.5
2020-08-01 03:15:00 50.3 75.9 43.0 50.3 50.3 4.2 6.9 5.0 274.6 264.9 0.00 0.0000000 65.4
2020-08-01 03:20:00 50.6 74.6 42.9 50.6 50.6 5.3 8.1 4.7 240.3 277.8 0.00 0.0000000 65.3
2020-08-01 03:25:00 50.9 73.1 42.6 50.9 50.9 3.7 6.9 4.6 280.2 277.4 0.00 0.0000000 65.2
2020-08-01 03:30:00 50.4 75.8 43.1 50.4 50.4 5.3 6.0 4.5 254.8 270.7 0.00 0.0000000 65.2
2020-08-01 03:35:00 50.0 76.4 42.9 50.0 50.0 3.5 6.3 3.4 232.1 249.6 0.00 0.0000000 65.1
2020-08-01 03:40:00 50.1 76.1 42.9 50.1 50.1 5.5 6.7 4.7 291.9 271.7 0.00 0.0000000 65.0
2020-08-01 03:45:00 50.2 75.4 42.7 50.2 50.2 3.8 6.9 4.4 288.7 290.6 0.00 0.0000000 64.9
2020-08-01 03:50:00 50.0 76.3 42.8 50.0 50.0 3.0 5.5 4.1 267.6 267.6 0.00 0.0000000 64.9
2020-08-01 03:55:00 50.0 75.7 42.6 48.7 50.0 4.2 6.9 4.8 259.4 277.2 0.00 0.0000000 64.8
2020-08-01 04:00:00 49.5 77.0 42.6 48.2 49.5 4.2 5.8 3.9 236.7 285.4 0.00 0.0000000 64.7
2020-08-01 04:05:00 49.2 77.8 42.6 48.1 49.2 3.8 6.9 4.8 297.7 265.8 0.00 0.0000000 64.6
2020-08-01 04:10:00 49.4 76.9 42.5 47.0 49.4 6.0 8.8 5.8 274.0 261.1 0.00 0.0000000 64.5
2020-08-01 04:15:00 49.3 77.7 42.6 49.3 49.3 2.6 6.3 3.7 228.6 248.6 0.00 0.0000000 64.5
2020-08-01 04:20:00 49.4 76.3 42.2 47.2 49.4 5.5 6.7 4.0 272.2 265.1 0.00 0.0000000 64.4
2020-08-01 04:25:00 49.5 76.1 42.3 48.1 49.5 4.2 7.4 4.7 267.6 264.7 0.00 0.0000000 64.3
2020-08-01 04:30:00 49.7 74.8 42.0 47.5 49.7 5.6 8.0 5.4 317.4 270.9 0.00 0.0000000 64.2
2020-08-01 04:35:00 49.7 75.3 42.2 48.2 49.7 4.4 5.5 3.9 325.1 274.8 0.00 0.0000000 64.2
2020-08-01 04:40:00 49.5 76.5 42.4 49.5 49.5 2.4 5.6 3.2 292.7 326.9 0.00 0.0000000 64.1
2020-08-01 04:45:00 49.2 76.4 42.1 49.2 49.2 2.8 5.8 3.5 186.8 267.1 0.00 0.0000000 64.0
2020-08-01 04:50:00 49.5 74.2 41.6 49.5 49.5 1.9 5.8 3.3 219.4 271.2 0.00 0.0000000 64.0
2020-08-01 04:55:00 49.5 73.6 41.4 48.2 49.5 4.2 4.7 3.2 312.2 282.1 0.00 0.0000000 63.9
2020-08-01 05:00:00 49.5 73.6 41.4 46.6 49.5 6.9 8.0 5.8 252.3 271.4 0.00 0.0000000 63.8
2020-08-01 05:05:00 49.5 74.2 41.6 47.8 49.5 4.7 8.1 6.1 278.0 270.7 0.00 0.0000000 63.7
2020-08-01 05:10:00 49.1 75.1 41.6 47.4 49.1 4.6 6.5 4.5 203.0 262.6 0.00 0.0000000 63.7
2020-08-01 05:15:00 49.0 76.1 41.8 49.0 49.0 2.4 9.4 4.6 224.2 254.6 0.00 0.0000000 63.6
2020-08-01 05:20:00 48.9 76.5 41.8 48.9 48.9 2.1 7.1 4.1 355.2 274.9 0.00 0.0000000 63.5
2020-08-01 05:25:00 48.9 76.2 41.7 47.3 48.9 4.4 5.5 3.9 273.2 278.3 0.00 0.0000000 63.5
2020-08-01 05:30:00 48.6 76.5 41.6 48.6 48.6 2.1 6.7 4.7 248.0 276.8 0.00 0.0000000 63.4
2020-08-01 05:35:00 48.7 74.1 40.9 46.7 48.7 5.1 7.6 4.7 254.4 274.0 0.00 0.0000000 63.3
2020-08-01 05:40:00 49.1 73.2 40.9 46.1 49.1 7.1 7.1 5.5 258.5 282.2 0.00 0.0000000 63.3
2020-08-01 05:45:00 49.5 72.5 41.0 47.8 49.5 4.7 8.3 5.1 246.8 277.7 0.00 0.0000000 63.2
2020-08-01 05:50:00 49.4 72.8 41.0 48.1 49.4 4.0 8.3 4.5 312.7 295.5 0.00 0.0000000 63.1
2020-08-01 05:55:00 49.0 75.0 41.4 47.3 49.0 4.6 6.0 4.2 295.1 293.9 0.00 0.0000000 63.1
2020-08-01 06:00:00 48.9 74.4 41.1 47.1 48.9 4.6 5.8 4.1 272.3 302.0 0.00 0.0000000 63.0
2020-08-01 06:05:00 48.9 75.1 41.3 47.4 48.9 4.2 6.0 4.2 242.7 256.1 0.00 0.0000000 62.9
2020-08-01 06:10:00 48.6 77.8 41.9 48.6 48.6 3.0 5.6 3.9 230.5 241.3 0.00 0.0002037 62.9
2020-08-01 06:15:00 48.5 76.2 41.3 48.5 48.5 2.6 6.5 3.6 240.0 250.6 0.00 0.0008254 62.8
2020-08-01 06:20:00 48.8 73.7 40.7 47.4 48.8 4.0 6.9 4.3 262.5 275.7 0.00 0.0018180 62.8
2020-08-01 06:25:00 49.0 73.6 40.9 46.5 49.0 6.0 9.2 6.2 237.8 279.3 0.00 0.0028000 62.7
2020-08-01 06:30:00 49.4 72.1 40.8 46.8 49.4 6.2 8.1 5.9 227.4 275.0 0.00 0.0050830 62.6
2020-08-01 06:35:00 49.4 73.1 41.1 49.4 49.4 2.6 6.9 4.4 265.3 283.5 0.00 0.0062950 62.6
2020-08-01 06:40:00 49.2 73.4 41.1 49.2 49.2 3.0 5.3 3.7 299.8 273.1 0.00 0.0073048 62.5
2020-08-01 06:45:00 49.2 74.0 41.3 46.7 49.2 6.0 6.0 4.1 272.0 265.1 0.00 0.0117145 62.5
2020-08-01 06:50:00 49.7 71.8 41.0 47.9 49.7 4.9 6.9 4.3 226.6 260.7 0.00 0.0284082 62.4
2020-08-01 06:55:00 50.1 71.3 41.2 50.1 50.1 5.6 6.9 4.1 286.1 248.5 0.00 0.0326808 62.4
2020-08-01 07:00:00 50.6 70.9 41.5 50.6 50.6 5.5 6.0 3.5 308.0 273.0 0.00 0.0366718 62.3
2020-08-01 07:05:00 51.3 69.6 41.7 51.3 51.3 5.3 5.5 3.6 268.5 265.5 0.00 0.0408916 62.2
2020-08-01 07:10:00 51.6 69.5 42.0 51.6 51.6 4.2 6.0 4.4 277.5 277.0 0.00 0.0452666 62.2
2020-08-01 07:15:00 52.2 68.3 42.1 52.2 52.2 4.2 5.5 3.2 279.4 304.3 0.00 0.0497863 62.2
2020-08-01 07:20:00 52.6 68.3 42.5 52.6 52.6 5.8 7.8 4.6 219.6 268.3 0.00 0.0543229 62.1
2020-08-01 07:25:00 53.0 67.3 42.5 53.0 53.0 4.2 8.0 4.6 310.8 278.4 0.00 0.0589232 62.1
2020-08-01 07:30:00 53.5 66.3 42.6 53.5 53.5 4.7 8.3 5.8 264.3 266.5 0.00 0.0632774 62.1
2020-08-01 07:35:00 53.8 70.0 44.3 53.8 53.8 3.3 7.1 4.3 334.9 297.3 0.00 0.0680041 62.0
2020-08-01 07:40:00 54.1 74.6 46.2 54.1 54.1 0.0 3.3 2.0 93.1 44.8 0.00 0.0721971 62.0
2020-08-01 07:45:00 55.3 67.7 44.8 55.3 55.3 1.0 1.7 0.9 256.4 40.4 0.00 0.0770785 62.0
2020-08-01 07:50:00 56.0 66.2 44.9 56.0 56.0 1.5 3.0 1.8 51.6 27.6 0.00 0.0811377 62.0
2020-08-01 07:55:00 56.5 67.0 45.6 56.5 56.5 1.2 3.8 1.6 70.7 43.1 0.00 0.0851982 62.0
2020-08-01 08:00:00 57.0 65.0 45.3 57.0 57.0 1.9 2.6 1.9 24.5 52.7 0.00 0.0903334 62.0
2020-08-01 08:05:00 57.4 63.0 45.0 57.4 57.4 1.0 3.0 1.7 351.9 33.5 0.00 0.0944786 62.0
2020-08-01 08:10:00 57.9 60.9 44.5 57.9 57.9 0.0 1.7 0.6 331.1 340.6 0.00 0.0995843 62.1
2020-08-01 08:15:00 58.9 58.3 44.3 58.9 58.9 2.2 3.1 1.3 352.8 9.1 0.00 0.1054733 62.2
2020-08-01 08:20:00 59.3 59.2 45.0 59.3 59.3 1.3 2.8 1.3 75.5 39.6 0.00 0.1105365 62.2
2020-08-01 08:25:00 58.8 57.4 43.8 58.8 58.8 2.1 3.3 2.4 334.1 345.9 0.00 0.1166398 62.3
2020-08-01 08:30:00 59.7 56.1 44.0 59.7 59.7 1.7 2.1 1.0 30.4 340.2 0.00 0.1213263 62.4
2020-08-01 08:35:00 60.4 55.8 44.6 60.4 60.4 1.9 3.0 2.0 100.6 353.0 0.00 0.1267876 62.5
2020-08-01 08:40:00 62.1 50.8 43.6 62.1 62.1 1.5 2.2 0.9 75.6 67.3 0.00 0.1314560 62.6
2020-08-01 08:45:00 62.6 52.1 44.7 62.6 62.6 1.0 3.5 1.7 139.4 87.9 0.00 0.1363042 62.7
2020-08-01 08:50:00 63.3 48.7 43.7 63.3 63.3 1.7 2.8 1.7 21.7 112.2 0.00 0.1423692 62.9
2020-08-01 08:55:00 64.6 51.4 46.3 64.6 64.6 0.8 1.7 1.0 351.5 353.6 0.00 0.1473441 63.0
2020-08-01 09:00:00 65.2 51.5 46.9 65.2 65.2 1.7 2.6 1.1 149.1 38.7 0.00 0.1528895 63.1
2020-08-01 09:05:00 65.8 46.6 44.8 65.8 65.8 3.3 3.5 1.7 110.7 103.0 0.00 0.1574408 63.3
2020-08-01 09:10:00 65.8 49.9 46.6 65.8 65.8 2.6 4.0 2.7 125.2 103.2 0.00 0.1626931 63.4
2020-08-01 09:15:00 65.8 48.0 45.5 65.8 65.8 4.6 4.6 3.4 98.4 121.2 0.00 0.1677613 63.6
2020-08-01 09:20:00 66.0 44.7 43.8 66.0 66.0 2.6 4.7 3.2 83.9 111.1 0.00 0.1727290 63.8
2020-08-01 09:25:00 66.5 45.6 44.8 66.5 66.5 2.1 3.5 2.4 123.5 121.3 0.00 0.1777606 64.0
2020-08-01 09:30:00 67.1 46.7 46.0 67.1 67.1 1.2 3.3 1.9 115.9 61.5 0.00 0.1825163 64.2
2020-08-01 09:35:00 68.3 41.7 44.1 68.3 68.3 4.2 4.2 1.7 131.1 88.8 0.00 0.1871454 64.4
2020-08-01 09:40:00 68.0 45.6 46.2 68.0 68.0 3.0 4.6 2.6 93.1 89.9 0.00 0.1920230 64.7
2020-08-01 09:45:00 68.6 42.2 44.8 68.6 68.6 2.2 4.7 2.5 79.1 94.4 0.00 0.1965147 64.9
2020-08-01 09:50:00 69.1 42.3 45.2 69.1 69.1 2.8 3.5 1.9 96.7 95.1 0.00 0.2014984 65.2
2020-08-01 09:55:00 69.4 46.1 47.8 69.4 69.4 1.7 3.5 2.6 83.3 116.5 0.00 0.2050555 65.4
2020-08-01 10:00:00 70.2 38.0 43.4 70.2 70.2 2.4 3.3 1.9 132.5 87.9 0.00 0.2098601 65.7
2020-08-01 10:05:00 71.1 43.6 47.8 71.1 71.1 3.1 4.7 2.9 67.1 107.9 0.00 0.2143023 66.0
2020-08-01 10:10:00 71.5 38.7 45.1 71.5 71.5 3.8 4.4 2.7 143.9 74.6 0.00 0.2188794 66.3
2020-08-01 10:15:00 71.7 37.6 44.5 71.7 71.7 3.0 4.4 2.6 59.1 91.4 0.00 0.2233990 66.5
2020-08-01 10:20:00 72.1 34.7 42.8 72.1 72.1 5.5 6.2 3.4 133.5 95.3 0.00 0.2274488 66.9
2020-08-01 10:25:00 72.7 36.2 44.3 72.7 72.7 3.8 5.5 4.1 62.3 100.8 0.00 0.2319199 67.2
2020-08-01 10:30:00 72.7 36.1 44.3 72.7 72.7 3.1 4.9 3.5 59.0 78.7 0.00 0.2364781 67.4
2020-08-01 10:35:00 73.2 34.9 43.8 73.2 73.2 3.8 6.9 4.9 95.5 105.1 0.00 0.2399285 67.7
2020-08-01 10:40:00 73.8 32.1 42.2 73.8 73.8 3.5 6.5 4.5 98.7 99.8 0.00 0.2438197 68.0
2020-08-01 10:45:00 73.9 26.9 37.7 73.9 73.9 4.4 7.2 4.2 121.8 89.8 0.00 0.2478167 68.4
2020-08-01 10:50:00 74.2 26.0 37.1 74.2 74.2 2.6 6.2 3.9 94.9 82.1 0.00 0.2513782 68.6
2020-08-01 10:55:00 74.2 28.2 39.1 74.2 74.2 4.7 6.9 4.6 102.9 86.7 0.00 0.2547409 68.9
2020-08-01 11:00:00 74.2 30.4 41.2 74.2 74.2 4.7 7.4 4.5 111.8 92.2 0.00 0.2579511 69.2
2020-08-01 11:05:00 74.5 28.9 40.0 74.5 74.5 5.8 8.3 5.4 110.1 83.8 0.00 0.2615775 69.5
2020-08-01 11:10:00 74.8 30.3 41.6 74.8 74.8 5.6 8.8 5.3 153.9 93.8 0.00 0.2651978 69.8
2020-08-01 11:15:00 75.2 29.6 41.3 75.2 75.2 5.5 8.1 5.5 95.1 87.0 0.00 0.2689748 70.1
2020-08-01 11:20:00 75.6 28.8 40.9 75.6 75.6 5.3 9.0 6.8 122.9 114.4 0.00 0.2720734 70.3
2020-08-01 11:25:00 75.6 25.1 37.3 75.6 75.6 8.1 8.5 5.2 110.8 87.8 0.00 0.2747850 70.6
2020-08-01 11:30:00 76.1 29.4 41.9 76.1 76.1 4.6 8.0 5.6 79.8 103.0 0.00 0.2786947 70.9
2020-08-01 11:35:00 75.8 25.5 37.9 75.8 75.8 9.2 9.6 5.2 91.6 81.2 0.00 0.2845648 71.1
2020-08-01 11:40:00 76.0 26.2 38.8 76.0 76.0 4.0 7.4 4.6 60.9 74.0 0.00 0.2895834 71.4
2020-08-01 11:45:00 75.8 29.3 41.6 75.8 75.8 6.0 8.1 5.9 103.8 91.3 0.00 0.2853902 71.6
2020-08-01 11:50:00 76.7 27.0 40.2 76.7 76.7 9.7 9.7 6.5 74.6 90.5 0.00 0.2864958 71.9
2020-08-01 11:55:00 76.2 32.2 44.3 76.2 76.2 5.5 9.0 5.7 108.5 87.1 0.00 0.2906107 72.2
2020-08-01 12:00:00 76.7 29.9 42.9 76.7 76.7 8.8 8.8 5.7 74.1 86.9 0.00 0.2946521 72.4
2020-08-01 12:05:00 76.7 32.3 44.9 76.7 76.7 3.5 8.1 5.8 124.1 92.4 0.00 0.3009087 72.7
2020-08-01 12:10:00 77.8 27.5 41.6 77.8 77.8 5.8 8.3 5.4 91.2 95.7 0.00 0.3104346 72.9
2020-08-01 12:15:00 77.6 29.8 43.6 77.6 77.6 5.1 9.6 6.0 73.6 98.9 0.00 0.2793123 73.2
2020-08-01 12:20:00 77.0 29.8 43.0 77.0 77.0 6.5 9.4 6.3 86.2 86.8 0.00 0.3195590 73.5
2020-08-01 12:25:00 77.3 29.3 42.9 77.3 77.3 6.0 9.9 6.5 73.0 85.5 0.00 0.3321080 73.8
2020-08-01 12:30:00 77.1 32.4 45.3 77.1 77.1 4.0 7.8 5.6 96.5 89.4 0.00 0.2311691 74.0
2020-08-01 12:35:00 75.4 30.4 42.1 75.4 75.4 5.1 8.1 6.4 83.6 109.5 0.00 0.0667248 74.4
2020-08-01 12:40:00 74.5 33.6 44.0 74.5 74.5 5.1 7.2 5.2 83.8 86.4 0.00 0.1071856 74.7
2020-08-01 12:45:00 77.3 29.6 43.1 77.3 77.3 5.1 7.6 5.2 96.7 107.8 0.00 0.3180251 74.9
2020-08-01 12:50:00 77.4 30.8 44.2 77.4 77.4 3.7 7.8 5.4 61.7 117.6 0.00 0.1887109 75.1
2020-08-01 12:55:00 75.5 36.8 47.3 75.5 75.5 4.9 7.6 5.2 63.6 94.5 0.00 0.1427157 75.3
2020-08-01 13:00:00 77.3 30.0 43.4 77.3 77.3 4.6 6.9 5.1 87.7 84.6 0.00 0.3178625 75.5
2020-08-01 13:05:00 76.5 27.1 40.1 76.5 76.5 6.9 9.7 6.1 88.4 88.0 0.00 0.1634415 75.6
2020-08-01 13:10:00 76.3 33.5 45.4 76.3 76.3 3.7 9.0 5.6 148.1 94.9 0.00 0.2189987 75.7
2020-08-01 13:15:00 77.1 28.5 41.9 77.1 77.1 7.6 9.2 5.8 132.9 92.2 0.00 0.1969199 75.8
2020-08-01 13:20:00 76.2 29.9 42.5 76.2 76.2 4.6 7.6 5.5 128.4 107.8 0.00 0.1195894 75.9
2020-08-01 13:25:00 76.2 29.3 41.9 76.2 76.2 6.0 7.1 5.0 109.2 97.3 0.00 0.1976700 76.0
2020-08-01 13:30:00 77.3 26.1 39.9 77.3 77.3 8.1 9.4 7.3 75.5 101.7 0.00 0.2146397 76.1
2020-08-01 13:35:00 75.6 27.8 40.0 75.6 75.6 6.9 8.7 6.0 42.9 94.5 0.00 0.0699920 76.2
2020-08-01 13:40:00 75.8 31.2 43.2 75.8 75.8 5.3 7.8 5.3 93.2 97.7 0.00 0.1683207 76.3
2020-08-01 13:45:00 77.1 24.8 38.4 77.1 77.1 7.1 8.5 5.6 118.1 122.2 0.00 0.2341702 76.3
2020-08-01 13:50:00 77.6 29.4 43.3 77.6 77.6 5.3 8.1 5.2 137.2 119.3 0.00 0.1924101 76.4
2020-08-01 13:55:00 76.2 28.1 40.8 76.2 76.2 2.2 10.6 4.8 124.0 122.8 0.00 0.0782220 76.4
2020-08-01 14:00:00 76.9 30.7 43.7 76.9 76.9 8.5 8.5 3.9 97.7 100.2 0.00 0.2531137 76.4
2020-08-01 14:05:00 77.5 32.1 45.4 77.5 77.5 3.8 9.6 6.5 113.3 90.3 0.00 0.2318673 76.5
2020-08-01 14:10:00 77.3 29.3 42.9 77.3 77.3 9.0 10.3 6.9 86.7 88.0 0.00 0.2126761 76.6
2020-08-01 14:15:00 77.5 33.2 46.2 77.5 77.5 5.1 9.2 6.8 125.7 83.8 0.00 0.2356353 76.7
2020-08-01 14:20:00 77.3 28.1 41.7 77.3 77.3 6.7 9.6 6.3 91.2 110.7 0.00 0.1385800 76.8
2020-08-01 14:25:00 76.6 34.1 46.3 76.6 76.6 5.8 8.5 5.8 87.4 102.5 0.00 0.1457961 76.9
2020-08-01 14:30:00 77.5 30.1 43.7 77.5 77.5 6.5 8.7 6.0 90.0 104.4 0.00 0.1590287 77.0
2020-08-01 14:35:00 76.4 29.2 42.0 76.4 76.4 7.8 10.3 6.3 79.7 83.2 0.00 0.1347724 77.1
2020-08-01 14:40:00 76.3 31.4 43.8 76.3 76.3 6.0 10.6 7.1 121.3 92.3 0.00 0.1412485 77.2
2020-08-01 14:45:00 77.2 31.1 44.3 77.2 77.2 7.2 11.2 7.4 84.5 104.9 0.00 0.2389079 77.3
2020-08-01 14:50:00 78.0 32.0 45.7 78.0 78.0 8.8 11.0 7.4 122.0 102.3 0.00 0.2031443 77.3
2020-08-01 14:55:00 75.8 30.2 42.3 75.8 75.8 9.7 13.3 8.2 100.2 91.9 0.00 0.1773586 77.4
2020-08-01 15:00:00 76.5 30.3 43.0 76.5 76.5 9.9 13.3 8.8 129.5 101.2 0.00 0.2973261 77.4
2020-08-01 15:05:00 75.4 33.2 44.5 75.4 75.4 9.7 12.2 9.4 122.6 106.7 0.00 0.1980892 77.5
2020-08-01 15:10:00 73.7 33.6 43.3 73.7 73.7 7.2 11.3 8.0 54.9 94.0 0.00 0.0849441 77.6
2020-08-01 15:15:00 72.6 35.8 44.0 72.6 72.6 4.4 9.7 5.6 72.9 73.1 0.00 0.1915060 77.7
2020-08-01 15:20:00 74.8 32.7 43.5 74.8 74.8 5.6 8.5 4.9 83.3 81.3 0.00 0.2811653 77.8
2020-08-01 15:25:00 74.7 27.9 39.4 74.7 74.7 9.7 12.2 8.0 97.2 98.8 0.00 0.2877495 77.9
2020-08-01 15:30:00 75.5 30.7 42.5 75.5 75.5 8.1 9.9 6.6 113.0 100.4 0.00 0.2842508 78.0
2020-08-01 15:35:00 75.4 26.9 39.0 75.4 75.4 4.6 9.2 6.7 87.5 114.1 0.00 0.2636508 78.1
2020-08-01 15:40:00 75.5 27.0 39.2 75.5 75.5 4.0 6.7 4.6 35.6 79.4 0.00 0.2634564 78.2
2020-08-01 15:45:00 76.1 27.7 40.4 76.1 76.1 3.8 8.8 4.3 110.7 93.0 0.00 0.2556024 78.4
2020-08-01 15:50:00 76.5 27.7 40.7 76.5 76.5 2.8 6.9 4.0 82.5 119.6 0.00 0.2451870 78.6
2020-08-01 15:55:00 77.0 30.8 43.9 77.0 77.0 1.9 6.9 4.3 134.6 121.6 0.00 0.2636761 78.8
2020-08-01 16:00:00 76.7 29.0 42.0 76.7 76.7 3.0 9.4 6.1 96.5 113.1 0.00 0.1761538 79.0
2020-08-01 16:05:00 75.9 32.3 44.2 75.9 75.9 5.8 9.6 5.0 120.2 95.0 0.00 0.1515046 79.2
2020-08-01 16:10:00 76.2 29.7 42.3 76.2 76.2 2.8 8.1 5.9 110.2 137.7 0.00 0.2471886 79.4
2020-08-01 16:15:00 77.2 27.6 41.1 77.2 77.2 7.1 7.2 4.9 121.4 141.0 0.00 0.2499003 79.6
2020-08-01 16:20:00 77.4 28.6 42.3 77.4 77.4 5.8 9.4 6.9 126.3 109.1 0.00 0.2372174 79.8
2020-08-01 16:25:00 77.7 28.6 42.5 77.7 77.7 6.3 9.2 6.5 139.3 118.1 0.00 0.2206641 79.9
2020-08-01 16:30:00 77.5 25.1 39.0 77.5 77.5 5.5 7.1 4.9 143.4 123.6 0.00 0.1663352 80.1
2020-08-01 16:35:00 77.0 30.2 43.3 77.0 77.0 4.0 6.9 4.4 78.4 105.1 0.00 0.1503323 80.2
2020-08-01 16:40:00 76.5 26.7 39.8 76.5 76.5 4.6 4.6 2.7 62.5 83.7 0.00 0.0836065 80.3
2020-08-01 16:45:00 75.4 30.3 42.1 75.4 75.4 2.2 5.1 2.5 79.8 64.8 0.00 0.0481563 80.5
2020-08-01 16:50:00 74.7 32.5 43.3 74.7 74.7 2.8 3.3 2.2 84.6 80.2 0.00 0.0352190 80.6
2020-08-01 16:55:00 74.1 33.2 43.3 74.1 74.1 3.0 5.6 3.7 134.3 89.5 0.00 0.0426398 80.6
2020-08-01 17:00:00 73.3 33.9 43.2 73.3 73.3 4.4 6.3 4.7 108.3 107.8 0.00 0.0465418 80.6
2020-08-01 17:05:00 73.0 36.2 44.6 73.0 73.0 3.5 5.5 3.8 87.3 104.7 0.00 0.0547507 80.6
2020-08-01 17:10:00 73.3 34.8 43.9 73.3 73.3 4.0 5.6 3.8 93.6 107.2 0.00 0.0867271 80.5
2020-08-01 17:15:00 74.0 31.4 41.7 74.0 74.0 6.9 7.2 3.9 73.3 95.7 0.00 0.1091374 80.4
2020-08-01 17:20:00 74.3 31.0 41.7 74.3 74.3 6.0 7.4 5.6 108.3 95.2 0.00 0.0907327 80.3
2020-08-01 17:25:00 73.2 33.4 42.7 73.2 73.2 5.6 8.5 6.0 93.6 88.2 0.00 0.0626083 80.2
2020-08-01 17:30:00 73.0 32.6 41.9 73.0 73.0 3.7 6.2 4.1 79.5 85.0 0.00 0.0641216 80.1
2020-08-01 17:35:00 73.1 33.8 42.9 73.1 73.1 3.0 5.8 3.4 51.0 79.9 0.00 0.0695669 80.0
2020-08-01 17:40:00 73.6 33.7 43.3 73.6 73.6 5.5 6.0 4.1 93.5 86.1 0.00 0.1079204 79.9
2020-08-01 17:45:00 73.9 34.8 44.4 73.9 73.9 5.8 8.1 5.5 65.7 90.9 0.00 0.1226347 79.7
2020-08-01 17:50:00 74.0 36.7 45.9 74.0 74.0 3.7 8.1 5.9 95.4 100.6 0.00 0.1252929 79.6
2020-08-01 17:55:00 74.0 34.8 44.5 74.0 74.0 5.5 8.8 6.0 154.6 98.8 0.00 0.1182255 79.6
2020-08-01 18:00:00 73.9 32.4 42.5 73.9 73.9 5.6 8.5 6.0 113.0 99.8 0.00 0.1111520 79.4
2020-08-01 18:05:00 73.9 36.4 45.6 73.9 73.9 2.2 6.7 4.4 72.6 93.8 0.00 0.1054623 79.4
2020-08-01 18:10:00 74.0 34.7 44.4 74.0 74.0 3.3 4.6 3.1 97.8 106.8 0.00 0.0847028 79.3
2020-08-01 18:15:00 74.1 33.1 43.2 74.1 74.1 3.8 5.1 3.4 149.5 131.3 0.00 0.0646233 79.2
2020-08-01 18:20:00 73.9 36.7 45.8 73.9 73.9 2.6 4.7 2.9 95.1 118.3 0.00 0.0801709 79.2
2020-08-01 18:25:00 74.0 33.2 43.2 74.0 74.0 4.4 5.8 3.9 140.9 123.4 0.00 0.0869213 79.1
2020-08-01 18:30:00 73.7 35.9 45.1 73.7 73.7 2.1 4.9 3.1 62.3 113.7 0.00 0.0627028 79.0
2020-08-01 18:35:00 74.4 36.7 46.2 74.4 74.4 2.2 5.1 2.7 137.7 114.3 0.00 0.0858173 78.9
2020-08-01 18:40:00 74.4 35.8 45.6 74.4 74.4 2.8 4.6 3.1 92.1 109.1 0.00 0.0747104 78.9
2020-08-01 18:45:00 73.8 36.3 45.4 73.8 73.8 5.6 8.0 5.1 89.0 93.4 0.00 0.0804816 78.8
2020-08-01 18:50:00 72.8 36.3 44.5 72.8 72.8 4.4 6.3 4.5 100.9 96.1 0.00 0.0628233 78.7
2020-08-01 18:55:00 72.2 36.7 44.3 72.2 72.2 3.8 7.4 5.1 108.5 87.7 0.00 0.0718406 78.6
2020-08-01 19:00:00 71.6 38.5 45.0 71.6 71.6 6.0 7.1 5.4 80.8 88.5 0.00 0.0443370 78.6
2020-08-01 19:05:00 70.7 39.6 44.9 70.7 70.7 3.7 6.2 4.1 133.5 92.1 0.00 0.0200271 78.4
2020-08-01 19:10:00 69.8 44.2 47.0 69.8 69.8 2.2 5.3 3.1 109.0 105.4 0.00 0.0171301 78.4
2020-08-01 19:15:00 69.5 45.0 47.2 69.5 69.5 0.8 3.0 1.9 64.8 74.3 0.00 0.0138632 78.3
2020-08-01 19:20:00 69.3 46.5 47.9 69.3 69.3 1.9 3.0 1.7 53.7 67.0 0.00 0.0112300 78.1
2020-08-01 19:25:00 69.2 48.7 49.1 69.2 69.2 3.0 4.7 2.9 58.0 60.8 0.00 0.0144654 78.0
2020-08-01 19:30:00 68.7 46.6 47.4 68.7 68.7 3.3 4.2 3.3 73.4 66.1 0.00 0.0047865 77.9
2020-08-01 19:35:00 68.6 42.6 45.0 68.6 68.6 3.5 5.1 3.2 106.0 80.7 0.00 0.0028732 77.7
2020-08-01 19:40:00 68.1 42.7 44.5 68.1 68.1 4.7 9.4 4.7 65.7 68.0 0.00 0.0018713 77.6
2020-08-01 19:45:00 67.8 41.9 43.8 67.8 67.8 2.8 6.2 3.6 36.3 38.0 0.00 0.0006659 77.4
2020-08-01 19:50:00 67.9 39.5 42.4 67.9 67.9 2.8 8.3 3.8 56.3 353.8 0.00 0.0004326 77.3
2020-08-01 19:55:00 67.4 40.0 42.2 67.4 67.4 5.3 8.5 4.9 52.6 42.8 0.00 0.0004457 77.1
2020-08-01 20:00:00 64.9 48.8 45.2 64.9 64.9 2.6 10.1 5.1 245.9 4.4 0.00 0.0000375 76.9
2020-08-01 20:05:00 63.7 50.3 44.9 63.7 63.7 1.7 7.8 4.2 156.6 314.5 0.00 0.0000000 76.8
2020-08-01 20:10:00 62.9 53.3 45.6 62.9 62.9 1.9 3.3 1.6 167.4 159.6 0.00 0.0000000 76.6
2020-08-01 20:15:00 61.4 57.2 46.1 61.4 61.4 5.3 6.3 3.8 277.7 242.6 0.00 0.0000000 76.4
2020-08-01 20:20:00 59.3 62.3 46.4 59.3 59.3 7.1 9.9 6.8 256.1 265.0 0.00 0.0000000 76.3
2020-08-01 20:25:00 58.6 64.6 46.8 58.6 58.6 9.0 9.4 7.4 271.1 290.0 0.00 0.0000000 76.0
2020-08-01 20:30:00 58.8 63.2 46.3 58.8 58.8 4.6 10.3 6.7 254.7 284.0 0.00 0.0000000 75.8
2020-08-01 20:35:00 59.0 62.2 46.0 59.0 59.0 4.7 9.0 6.7 282.6 300.5 0.00 0.0000000 75.7
2020-08-01 20:40:00 59.4 60.8 45.9 59.4 59.4 5.1 11.3 6.9 239.4 293.5 0.00 0.0000000 75.5
2020-08-01 20:45:00 58.5 66.3 47.3 58.5 58.5 5.6 8.5 4.8 251.7 263.5 0.00 0.0000000 75.3
2020-08-01 20:50:00 57.3 69.1 47.2 57.3 57.3 2.1 5.6 3.2 215.0 241.5 0.00 0.0000000 75.1
2020-08-01 20:55:00 57.3 66.7 46.3 57.3 57.3 4.0 4.4 3.0 311.6 287.5 0.00 0.0000000 74.9
2020-08-01 21:00:00 57.8 63.6 45.5 57.8 57.8 3.3 5.1 3.9 317.1 315.2 0.00 0.0000000 74.7
2020-08-01 21:05:00 58.2 61.6 45.1 58.2 58.2 2.6 3.5 2.0 271.2 285.0 0.00 0.0000000 74.5
2020-08-01 21:10:00 58.9 58.6 44.5 58.9 58.9 2.4 3.8 2.7 200.2 264.8 0.00 0.0000000 74.3
2020-08-01 21:15:00 57.6 68.3 47.2 57.6 57.6 2.1 3.7 2.5 198.4 226.8 0.00 0.0000000 74.1
2020-08-01 21:20:00 56.0 71.3 46.9 56.0 56.0 1.5 3.8 2.7 216.7 205.9 0.00 0.0000000 73.9
2020-08-01 21:25:00 56.0 68.8 45.9 56.0 56.0 4.6 4.7 2.6 279.9 241.4 0.00 0.0000000 73.7
2020-08-01 21:30:00 56.6 68.5 46.4 56.6 56.6 4.2 5.3 4.1 298.5 281.3 0.00 0.0000000 73.5
2020-08-01 21:35:00 56.9 68.2 46.5 56.9 56.9 4.4 6.9 5.2 225.2 279.1 0.00 0.0000000 73.4
2020-08-01 21:40:00 56.6 70.6 47.1 56.6 56.6 6.5 8.1 5.1 250.2 260.4 0.00 0.0000000 73.2
2020-08-01 21:45:00 56.2 71.8 47.2 56.2 56.2 4.4 8.5 5.5 227.2 258.1 0.00 0.0000000 73.0
2020-08-01 21:50:00 56.1 72.2 47.3 56.1 56.1 6.9 8.3 5.9 285.4 267.8 0.00 0.0000000 72.9
2020-08-01 21:55:00 56.1 72.2 47.2 56.1 56.1 5.6 9.0 6.3 291.1 274.9 0.00 0.0000000 72.7
2020-08-01 22:00:00 56.4 71.5 47.3 56.4 56.4 4.6 8.0 5.6 214.7 272.7 0.00 0.0000000 72.5
2020-08-01 22:05:00 55.9 72.6 47.3 55.9 55.9 6.0 8.3 4.4 297.6 268.3 0.00 0.0000000 72.4
2020-08-01 22:10:00 55.6 74.0 47.5 55.6 55.6 4.4 7.1 5.3 291.9 256.6 0.00 0.0000000 72.2
2020-08-01 22:15:00 55.5 73.8 47.2 55.5 55.5 4.4 7.6 5.3 290.6 261.5 0.00 0.0000000 72.1
2020-08-01 22:20:00 55.3 73.9 47.2 55.3 55.3 5.8 7.6 5.9 301.0 275.2 0.00 0.0000000 71.9
2020-08-01 22:25:00 55.3 74.1 47.2 55.3 55.3 7.1 8.1 5.8 271.9 264.2 0.00 0.0000000 71.8
2020-08-01 22:30:00 55.0 73.3 46.6 55.0 55.0 5.8 7.8 4.4 263.1 248.1 0.00 0.0000000 71.6
2020-08-01 22:35:00 55.1 72.6 46.4 55.1 55.1 3.1 6.3 3.8 286.8 250.8 0.00 0.0000000 71.5
2020-08-01 22:40:00 55.0 73.1 46.5 55.0 55.0 3.0 5.1 3.6 288.6 258.6 0.00 0.0000000 71.4
2020-08-01 22:45:00 55.1 72.8 46.5 55.1 55.1 5.3 6.5 4.6 263.9 267.1 0.00 0.0000000 71.2
2020-08-01 22:50:00 55.1 72.4 46.4 55.1 55.1 6.9 8.1 4.8 254.5 252.5 0.00 0.0000000 71.1
2020-08-01 22:55:00 55.1 73.7 46.9 55.1 55.1 3.5 7.8 5.0 282.0 254.2 0.00 0.0000000 70.9
2020-08-01 23:00:00 55.1 72.0 46.2 55.1 55.1 6.5 8.5 4.6 212.4 275.1 0.00 0.0000000 70.9
2020-08-01 23:05:00 55.2 71.5 46.1 55.2 55.2 6.5 8.0 5.4 293.0 256.5 0.00 0.0000000 70.7
2020-08-01 23:10:00 55.2 71.9 46.3 55.2 55.2 7.8 10.1 6.3 282.8 269.6 0.00 0.0000000 70.6
2020-08-01 23:15:00 55.3 72.1 46.5 55.3 55.3 3.0 8.5 5.8 289.3 271.3 0.00 0.0000000 70.5
2020-08-01 23:20:00 55.4 71.5 46.3 55.4 55.4 7.8 10.6 5.8 244.7 267.2 0.00 0.0000000 70.4
2020-08-01 23:25:00 55.4 70.9 46.1 55.4 55.4 8.0 8.8 5.7 227.6 273.7 0.00 0.0000000 70.3
2020-08-01 23:30:00 55.6 70.4 46.1 55.6 55.6 6.9 9.2 5.8 294.8 262.0 0.00 0.0000000 70.2
2020-08-01 23:35:00 55.6 70.2 46.0 55.6 55.6 3.3 8.7 5.8 318.8 279.8 0.00 0.0000000 70.1
2020-08-01 23:40:00 55.6 70.5 46.1 55.6 55.6 4.2 6.5 4.7 265.3 277.2 0.00 0.0000000 70.0
2020-08-01 23:45:00 55.6 69.7 45.8 55.6 55.6 7.2 7.2 4.0 249.7 258.3 0.00 0.0000000 69.9
2020-08-01 23:50:00 55.8 69.1 45.8 55.8 55.8 8.8 11.2 7.3 255.9 269.9 0.00 0.0000000 69.8
2020-08-01 23:55:00 55.9 67.5 45.3 55.9 55.9 9.7 10.5 7.8 296.6 270.2 0.00 0.0000000 69.7
2020-08-02 00:00:00 56.2 66.8 45.3 56.2 56.2 8.3 9.4 7.2 258.0 275.6 0.00 0.0000000 69.6

Data is courtesy of the NM Climate Center. DO NOT USE IN LEGAL PROCEEDINGS.